sensor_id;sensor_type;location;lat;lon;timestamp;P1;durP1;ratioP1;P2;durP2;ratioP2
3712;SDS011;1872;51.406;6.856;2023-07-20T00:01:14;5.67;;;5.17;;
3712;SDS011;1872;51.406;6.856;2023-07-20T00:03:40;7.17;;;6.47;;
3712;SDS011;1872;51.406;6.856;2023-07-20T00:06:06;6.23;;;5.63;;
3712;SDS011;1872;51.406;6.856;2023-07-20T00:08:32;6.63;;;6.03;;
3712;SDS011;1872;51.406;6.856;2023-07-20T00:10:57;6.00;;;5.50;;
3712;SDS011;1872;51.406;6.856;2023-07-20T00:13:23;6.03;;;5.53;;
3712;SDS011;1872;51.406;6.856;2023-07-20T00:15:49;9.33;;;5.93;;
3712;SDS011;1872;51.406;6.856;2023-07-20T00:18:16;6.80;;;5.40;;
3712;SDS011;1872;51.406;6.856;2023-07-20T00:20:41;6.03;;;5.53;;
3712;SDS011;1872;51.406;6.856;2023-07-20T00:23:07;7.10;;;5.80;;
3712;SDS011;1872;51.406;6.856;2023-07-20T00:25:34;6.97;;;6.37;;
3712;SDS011;1872;51.406;6.856;2023-07-20T00:28:01;6.40;;;5.90;;
3712;SDS011;1872;51.406;6.856;2023-07-20T00:30:26;7.20;;;6.23;;
3712;SDS011;1872;51.406;6.856;2023-07-20T00:32:52;6.13;;;5.53;;
3712;SDS011;1872;51.406;6.856;2023-07-20T00:35:18;6.43;;;5.60;;
3712;SDS011;1872;51.406;6.856;2023-07-20T00:37:43;6.47;;;5.97;;
3712;SDS011;1872;51.406;6.856;2023-07-20T00:40:09;6.57;;;5.97;;
3712;SDS011;1872;51.406;6.856;2023-07-20T00:42:36;8.47;;;6.00;;
3712;SDS011;1872;51.406;6.856;2023-07-20T00:45:01;5.87;;;5.37;;
3712;SDS011;1872;51.406;6.856;2023-07-20T00:47:27;6.03;;;5.53;;
3712;SDS011;1872;51.406;6.856;2023-07-20T00:49:53;6.83;;;5.93;;
3712;SDS011;1872;51.406;6.856;2023-07-20T00:52:20;8.20;;;6.40;;
3712;SDS011;1872;51.406;6.856;2023-07-20T00:54:48;9.83;;;6.53;;
3712;SDS011;1872;51.406;6.856;2023-07-20T00:57:15;8.40;;;6.80;;
3712;SDS011;1872;51.406;6.856;2023-07-20T00:59:43;5.63;;;5.13;;
3712;SDS011;1872;51.406;6.856;2023-07-20T01:02:09;7.37;;;6.67;;
3712;SDS011;1872;51.406;6.856;2023-07-20T01:04:35;6.53;;;5.80;;
3712;SDS011;1872;51.406;6.856;2023-07-20T01:09:53;7.40;;;6.67;;
3712;SDS011;1872;51.406;6.856;2023-07-20T01:12:26;6.87;;;6.27;;
3712;SDS011;1872;51.406;6.856;2023-07-20T01:14:58;7.10;;;6.40;;
3712;SDS011;1872;51.406;6.856;2023-07-20T01:17:23;6.90;;;6.30;;
3712;SDS011;1872;51.406;6.856;2023-07-20T01:19:49;7.23;;;6.53;;
3712;SDS011;1872;51.406;6.856;2023-07-20T01:25:42;6.30;;;5.70;;
3712;SDS011;1872;51.406;6.856;2023-07-20T01:31:31;7.90;;;6.67;;
3712;SDS011;1872;51.406;6.856;2023-07-20T01:34:00;7.80;;;6.27;;
3712;SDS011;1872;51.406;6.856;2023-07-20T01:36:27;7.97;;;6.67;;
3712;SDS011;1872;51.406;6.856;2023-07-20T01:38:55;8.33;;;6.90;;
3712;SDS011;1872;51.406;6.856;2023-07-20T01:41:21;8.33;;;7.50;;
3712;SDS011;1872;51.406;6.856;2023-07-20T01:43:47;8.63;;;7.03;;
3712;SDS011;1872;51.406;6.856;2023-07-20T01:46:13;10.10;;;8.67;;
3712;SDS011;1872;51.406;6.856;2023-07-20T01:48:39;11.27;;;8.33;;
3712;SDS011;1872;51.406;6.856;2023-07-20T01:51:04;7.87;;;7.07;;
3712;SDS011;1872;51.406;6.856;2023-07-20T01:53:30;8.57;;;7.70;;
3712;SDS011;1872;51.406;6.856;2023-07-20T01:55:56;10.57;;;8.03;;
3712;SDS011;1872;51.406;6.856;2023-07-20T01:58:22;9.77;;;8.20;;
3712;SDS011;1872;51.406;6.856;2023-07-20T02:00:48;11.23;;;9.10;;
3712;SDS011;1872;51.406;6.856;2023-07-20T02:03:14;9.87;;;7.50;;
3712;SDS011;1872;51.406;6.856;2023-07-20T02:05:41;11.50;;;9.10;;
3712;SDS011;1872;51.406;6.856;2023-07-20T02:08:07;9.00;;;8.10;;
3712;SDS011;1872;51.406;6.856;2023-07-20T02:10:33;10.33;;;8.30;;
3712;SDS011;1872;51.406;6.856;2023-07-20T02:12:59;9.97;;;7.53;;
3712;SDS011;1872;51.406;6.856;2023-07-20T02:15:25;9.13;;;8.10;;
3712;SDS011;1872;51.406;6.856;2023-07-20T02:17:50;9.47;;;8.20;;
3712;SDS011;1872;51.406;6.856;2023-07-20T02:20:16;9.70;;;8.53;;
3712;SDS011;1872;51.406;6.856;2023-07-20T02:22:43;9.83;;;7.60;;
3712;SDS011;1872;51.406;6.856;2023-07-20T02:25:08;11.53;;;8.70;;
3712;SDS011;1872;51.406;6.856;2023-07-20T02:27:34;10.37;;;9.03;;
3712;SDS011;1872;51.406;6.856;2023-07-20T02:30:00;11.10;;;8.93;;
3712;SDS011;1872;51.406;6.856;2023-07-20T02:32:25;11.27;;;9.90;;
3712;SDS011;1872;51.406;6.856;2023-07-20T02:34:51;11.63;;;10.40;;
3712;SDS011;1872;51.406;6.856;2023-07-20T02:37:17;14.10;;;9.47;;
3712;SDS011;1872;51.406;6.856;2023-07-20T02:39:43;13.53;;;9.80;;
3712;SDS011;1872;51.406;6.856;2023-07-20T02:42:08;10.43;;;9.33;;
3712;SDS011;1872;51.406;6.856;2023-07-20T02:44:34;12.83;;;9.43;;
3712;SDS011;1872;51.406;6.856;2023-07-20T02:47:00;9.10;;;8.30;;
3712;SDS011;1872;51.406;6.856;2023-07-20T02:49:26;13.10;;;11.23;;
3712;SDS011;1872;51.406;6.856;2023-07-20T02:51:52;12.80;;;9.40;;
3712;SDS011;1872;51.406;6.856;2023-07-20T02:54:18;10.60;;;9.00;;
3712;SDS011;1872;51.406;6.856;2023-07-20T02:56:43;10.70;;;9.20;;
3712;SDS011;1872;51.406;6.856;2023-07-20T02:59:09;10.63;;;9.40;;
3712;SDS011;1872;51.406;6.856;2023-07-20T03:01:34;11.73;;;10.00;;
3712;SDS011;1872;51.406;6.856;2023-07-20T03:04:00;13.10;;;10.50;;
3712;SDS011;1872;51.406;6.856;2023-07-20T03:06:27;14.23;;;10.30;;
3712;SDS011;1872;51.406;6.856;2023-07-20T03:08:53;12.67;;;10.60;;
3712;SDS011;1872;51.406;6.856;2023-07-20T03:11:19;12.80;;;10.40;;
3712;SDS011;1872;51.406;6.856;2023-07-20T03:13:46;11.57;;;9.33;;
3712;SDS011;1872;51.406;6.856;2023-07-20T03:16:14;13.00;;;9.30;;
3712;SDS011;1872;51.406;6.856;2023-07-20T03:18:43;12.13;;;9.53;;
3712;SDS011;1872;51.406;6.856;2023-07-20T03:21:09;12.10;;;9.63;;
3712;SDS011;1872;51.406;6.856;2023-07-20T03:23:39;13.63;;;10.33;;
3712;SDS011;1872;51.406;6.856;2023-07-20T03:26:06;13.30;;;9.73;;
3712;SDS011;1872;51.406;6.856;2023-07-20T03:28:34;15.47;;;11.20;;
3712;SDS011;1872;51.406;6.856;2023-07-20T03:31:00;15.47;;;10.80;;
3712;SDS011;1872;51.406;6.856;2023-07-20T03:33:26;12.73;;;9.73;;
3712;SDS011;1872;51.406;6.856;2023-07-20T03:35:54;14.80;;;11.43;;
3712;SDS011;1872;51.406;6.856;2023-07-20T03:38:20;12.57;;;10.10;;
3712;SDS011;1872;51.406;6.856;2023-07-20T03:40:50;15.30;;;10.63;;
3712;SDS011;1872;51.406;6.856;2023-07-20T03:43:16;12.93;;;11.30;;
3712;SDS011;1872;51.406;6.856;2023-07-20T03:45:42;14.23;;;10.70;;
3712;SDS011;1872;51.406;6.856;2023-07-20T03:48:07;15.87;;;10.80;;
3712;SDS011;1872;51.406;6.856;2023-07-20T03:50:33;15.53;;;10.17;;
3712;SDS011;1872;51.406;6.856;2023-07-20T03:52:59;12.90;;;9.70;;
3712;SDS011;1872;51.406;6.856;2023-07-20T03:55:24;14.23;;;11.30;;
3712;SDS011;1872;51.406;6.856;2023-07-20T03:57:50;12.70;;;10.60;;
3712;SDS011;1872;51.406;6.856;2023-07-20T04:00:16;13.57;;;10.80;;
3712;SDS011;1872;51.406;6.856;2023-07-20T04:02:42;13.83;;;10.83;;
3712;SDS011;1872;51.406;6.856;2023-07-20T04:05:08;12.70;;;10.30;;
3712;SDS011;1872;51.406;6.856;2023-07-20T04:07:34;14.53;;;11.37;;
3712;SDS011;1872;51.406;6.856;2023-07-20T04:09:59;12.67;;;10.23;;
3712;SDS011;1872;51.406;6.856;2023-07-20T04:12:25;14.73;;;11.83;;
3712;SDS011;1872;51.406;6.856;2023-07-20T04:14:51;18.23;;;12.97;;
3712;SDS011;1872;51.406;6.856;2023-07-20T04:17:16;14.20;;;12.17;;
3712;SDS011;1872;51.406;6.856;2023-07-20T04:19:43;13.83;;;11.60;;
3712;SDS011;1872;51.406;6.856;2023-07-20T04:22:09;15.10;;;10.93;;
3712;SDS011;1872;51.406;6.856;2023-07-20T04:24:34;15.30;;;11.87;;
3712;SDS011;1872;51.406;6.856;2023-07-20T04:27:00;15.70;;;10.97;;
3712;SDS011;1872;51.406;6.856;2023-07-20T04:29:26;13.93;;;10.70;;
3712;SDS011;1872;51.406;6.856;2023-07-20T04:31:51;16.40;;;12.53;;
3712;SDS011;1872;51.406;6.856;2023-07-20T04:34:17;17.10;;;12.57;;
3712;SDS011;1872;51.406;6.856;2023-07-20T04:36:43;15.73;;;11.57;;
3712;SDS011;1872;51.406;6.856;2023-07-20T04:39:09;14.80;;;12.20;;
3712;SDS011;1872;51.406;6.856;2023-07-20T04:41:35;13.43;;;11.30;;
3712;SDS011;1872;51.406;6.856;2023-07-20T04:44:01;15.87;;;13.00;;
3712;SDS011;1872;51.406;6.856;2023-07-20T04:46:27;19.63;;;15.10;;
3712;SDS011;1872;51.406;6.856;2023-07-20T04:48:53;15.83;;;12.67;;
3712;SDS011;1872;51.406;6.856;2023-07-20T04:51:19;20.97;;;14.57;;
3712;SDS011;1872;51.406;6.856;2023-07-20T04:53:47;21.20;;;15.70;;
3712;SDS011;1872;51.406;6.856;2023-07-20T04:56:12;19.60;;;14.60;;
3712;SDS011;1872;51.406;6.856;2023-07-20T04:58:38;22.23;;;16.70;;
3712;SDS011;1872;51.406;6.856;2023-07-20T05:01:04;21.23;;;16.63;;
3712;SDS011;1872;51.406;6.856;2023-07-20T05:03:30;29.13;;;21.30;;
3712;SDS011;1872;51.406;6.856;2023-07-20T05:05:56;24.17;;;18.20;;
3712;SDS011;1872;51.406;6.856;2023-07-20T05:08:22;28.30;;;19.70;;
3712;SDS011;1872;51.406;6.856;2023-07-20T05:10:48;23.00;;;17.83;;
3712;SDS011;1872;51.406;6.856;2023-07-20T05:13:14;22.50;;;17.80;;
3712;SDS011;1872;51.406;6.856;2023-07-20T05:15:39;25.97;;;20.60;;
3712;SDS011;1872;51.406;6.856;2023-07-20T05:18:05;26.33;;;19.60;;
3712;SDS011;1872;51.406;6.856;2023-07-20T05:20:31;25.23;;;19.10;;
3712;SDS011;1872;51.406;6.856;2023-07-20T05:22:58;26.00;;;19.73;;
3712;SDS011;1872;51.406;6.856;2023-07-20T05:25:25;23.03;;;19.00;;
3712;SDS011;1872;51.406;6.856;2023-07-20T05:27:51;25.37;;;19.87;;
3712;SDS011;1872;51.406;6.856;2023-07-20T05:30:17;19.83;;;17.10;;
3712;SDS011;1872;51.406;6.856;2023-07-20T05:32:43;21.70;;;15.67;;
3712;SDS011;1872;51.406;6.856;2023-07-20T05:35:12;18.97;;;15.60;;
3712;SDS011;1872;51.406;6.856;2023-07-20T05:37:39;15.90;;;14.17;;
3712;SDS011;1872;51.406;6.856;2023-07-20T05:40:04;16.63;;;13.87;;
3712;SDS011;1872;51.406;6.856;2023-07-20T05:42:33;20.07;;;14.57;;
3712;SDS011;1872;51.406;6.856;2023-07-20T05:44:59;15.50;;;13.50;;
3712;SDS011;1872;51.406;6.856;2023-07-20T05:47:24;13.67;;;12.10;;
3712;SDS011;1872;51.406;6.856;2023-07-20T05:49:50;14.20;;;11.90;;
3712;SDS011;1872;51.406;6.856;2023-07-20T05:52:16;14.00;;;12.40;;
3712;SDS011;1872;51.406;6.856;2023-07-20T05:54:41;13.43;;;11.90;;
3712;SDS011;1872;51.406;6.856;2023-07-20T05:57:07;15.63;;;12.73;;
3712;SDS011;1872;51.406;6.856;2023-07-20T05:59:33;12.37;;;11.07;;
3712;SDS011;1872;51.406;6.856;2023-07-20T06:01:58;13.80;;;10.70;;
3712;SDS011;1872;51.406;6.856;2023-07-20T06:04:24;11.50;;;10.30;;
3712;SDS011;1872;51.406;6.856;2023-07-20T06:06:50;10.27;;;9.20;;
3712;SDS011;1872;51.406;6.856;2023-07-20T06:09:15;11.27;;;9.57;;
3712;SDS011;1872;51.406;6.856;2023-07-20T06:11:41;11.00;;;9.07;;
3712;SDS011;1872;51.406;6.856;2023-07-20T06:14:07;9.30;;;8.40;;
3712;SDS011;1872;51.406;6.856;2023-07-20T06:16:33;10.03;;;8.93;;
3712;SDS011;1872;51.406;6.856;2023-07-20T06:19:00;9.20;;;7.77;;
3712;SDS011;1872;51.406;6.856;2023-07-20T06:21:25;8.30;;;7.47;;
3712;SDS011;1872;51.406;6.856;2023-07-20T06:23:51;9.97;;;7.80;;
3712;SDS011;1872;51.406;6.856;2023-07-20T06:26:17;7.77;;;6.90;;
3712;SDS011;1872;51.406;6.856;2023-07-20T06:28:43;7.33;;;6.63;;
3712;SDS011;1872;51.406;6.856;2023-07-20T06:31:08;8.23;;;7.20;;
3712;SDS011;1872;51.406;6.856;2023-07-20T06:33:34;8.57;;;7.67;;
3712;SDS011;1872;51.406;6.856;2023-07-20T06:36:00;8.33;;;7.43;;
3712;SDS011;1872;51.406;6.856;2023-07-20T06:38:26;8.00;;;7.20;;
3712;SDS011;1872;51.406;6.856;2023-07-20T06:40:51;16.77;;;12.67;;
3712;SDS011;1872;51.406;6.856;2023-07-20T06:43:17;22.43;;;15.97;;
3712;SDS011;1872;51.406;6.856;2023-07-20T06:45:43;28.03;;;19.93;;
3712;SDS011;1872;51.406;6.856;2023-07-20T06:48:09;33.83;;;21.10;;
3712;SDS011;1872;51.406;6.856;2023-07-20T06:50:35;30.20;;;21.00;;
3712;SDS011;1872;51.406;6.856;2023-07-20T06:53:00;32.93;;;23.40;;
3712;SDS011;1872;51.406;6.856;2023-07-20T06:55:29;28.70;;;19.90;;
3712;SDS011;1872;51.406;6.856;2023-07-20T06:57:54;14.70;;;12.40;;
3712;SDS011;1872;51.406;6.856;2023-07-20T07:00:20;11.97;;;10.30;;
3712;SDS011;1872;51.406;6.856;2023-07-20T07:02:46;9.63;;;7.40;;
3712;SDS011;1872;51.406;6.856;2023-07-20T07:05:12;7.93;;;7.13;;
3712;SDS011;1872;51.406;6.856;2023-07-20T07:07:40;7.87;;;6.60;;
3712;SDS011;1872;51.406;6.856;2023-07-20T07:10:05;7.20;;;6.60;;
3712;SDS011;1872;51.406;6.856;2023-07-20T07:12:32;7.33;;;6.73;;
3712;SDS011;1872;51.406;6.856;2023-07-20T07:14:57;5.80;;;5.40;;
3712;SDS011;1872;51.406;6.856;2023-07-20T07:17:23;5.90;;;5.40;;
3712;SDS011;1872;51.406;6.856;2023-07-20T07:19:49;5.67;;;5.17;;
3712;SDS011;1872;51.406;6.856;2023-07-20T07:22:18;5.07;;;4.67;;
3712;SDS011;1872;51.406;6.856;2023-07-20T07:24:44;5.60;;;5.10;;
3712;SDS011;1872;51.406;6.856;2023-07-20T07:27:10;4.70;;;4.30;;
3712;SDS011;1872;51.406;6.856;2023-07-20T07:29:36;4.57;;;4.17;;
3712;SDS011;1872;51.406;6.856;2023-07-20T07:32:01;5.10;;;4.70;;
3712;SDS011;1872;51.406;6.856;2023-07-20T07:34:27;4.40;;;4.00;;
3712;SDS011;1872;51.406;6.856;2023-07-20T07:36:53;4.37;;;3.97;;
3712;SDS011;1872;51.406;6.856;2023-07-20T07:39:19;4.13;;;3.80;;
3712;SDS011;1872;51.406;6.856;2023-07-20T07:41:44;3.60;;;3.30;;
3712;SDS011;1872;51.406;6.856;2023-07-20T07:44:10;3.40;;;3.10;;
3712;SDS011;1872;51.406;6.856;2023-07-20T07:46:36;3.47;;;3.23;;
3712;SDS011;1872;51.406;6.856;2023-07-20T07:49:02;3.03;;;2.83;;
3712;SDS011;1872;51.406;6.856;2023-07-20T07:51:29;2.23;;;2.13;;
3712;SDS011;1872;51.406;6.856;2023-07-20T07:53:54;2.43;;;2.23;;
3712;SDS011;1872;51.406;6.856;2023-07-20T07:56:20;2.30;;;2.10;;
3712;SDS011;1872;51.406;6.856;2023-07-20T07:58:50;2.03;;;1.93;;
3712;SDS011;1872;51.406;6.856;2023-07-20T08:01:16;2.63;;;2.43;;
3712;SDS011;1872;51.406;6.856;2023-07-20T08:03:44;3.53;;;3.30;;
3712;SDS011;1872;51.406;6.856;2023-07-20T08:06:12;5.40;;;3.37;;
3712;SDS011;1872;51.406;6.856;2023-07-20T08:08:38;6.67;;;6.00;;
3712;SDS011;1872;51.406;6.856;2023-07-20T08:11:04;5.37;;;4.97;;
3712;SDS011;1872;51.406;6.856;2023-07-20T08:13:30;7.07;;;6.57;;
3712;SDS011;1872;51.406;6.856;2023-07-20T08:15:57;8.40;;;7.70;;
3712;SDS011;1872;51.406;6.856;2023-07-20T08:18:23;6.90;;;6.03;;
3712;SDS011;1872;51.406;6.856;2023-07-20T08:20:49;7.80;;;7.10;;
3712;SDS011;1872;51.406;6.856;2023-07-20T08:23:15;6.00;;;5.50;;
3712;SDS011;1872;51.406;6.856;2023-07-20T08:25:40;7.50;;;6.87;;
3712;SDS011;1872;51.406;6.856;2023-07-20T08:28:09;6.53;;;5.93;;
3712;SDS011;1872;51.406;6.856;2023-07-20T08:30:42;6.07;;;5.50;;
3712;SDS011;1872;51.406;6.856;2023-07-20T08:33:16;4.70;;;4.40;;
3712;SDS011;1872;51.406;6.856;2023-07-20T08:35:44;4.53;;;4.13;;
3712;SDS011;1872;51.406;6.856;2023-07-20T08:38:10;7.60;;;6.90;;
3712;SDS011;1872;51.406;6.856;2023-07-20T08:40:39;7.50;;;6.50;;
3712;SDS011;1872;51.406;6.856;2023-07-20T08:43:06;7.80;;;7.10;;
3712;SDS011;1872;51.406;6.856;2023-07-20T08:45:35;9.73;;;8.83;;
3712;SDS011;1872;51.406;6.856;2023-07-20T08:48:03;10.30;;;9.40;;
3712;SDS011;1872;51.406;6.856;2023-07-20T08:50:30;9.27;;;8.50;;
3712;SDS011;1872;51.406;6.856;2023-07-20T08:52:57;8.10;;;7.30;;
3712;SDS011;1872;51.406;6.856;2023-07-20T08:55:27;7.93;;;7.17;;
3712;SDS011;1872;51.406;6.856;2023-07-20T08:57:55;5.63;;;5.13;;
3712;SDS011;1872;51.406;6.856;2023-07-20T09:00:22;5.50;;;5.10;;
3712;SDS011;1872;51.406;6.856;2023-07-20T09:02:55;10.93;;;10.00;;
3712;SDS011;1872;51.406;6.856;2023-07-20T09:05:22;9.50;;;8.80;;
3712;SDS011;1872;51.406;6.856;2023-07-20T09:07:51;10.50;;;9.70;;
3712;SDS011;1872;51.406;6.856;2023-07-20T09:10:22;9.67;;;8.90;;
3712;SDS011;1872;51.406;6.856;2023-07-20T09:12:49;11.90;;;10.80;;
3712;SDS011;1872;51.406;6.856;2023-07-20T09:15:15;12.63;;;11.43;;
3712;SDS011;1872;51.406;6.856;2023-07-20T09:17:48;11.23;;;10.13;;
3712;SDS011;1872;51.406;6.856;2023-07-20T09:20:15;11.80;;;10.70;;
3712;SDS011;1872;51.406;6.856;2023-07-20T09:22:43;11.83;;;10.67;;
3712;SDS011;1872;51.406;6.856;2023-07-20T09:25:13;12.00;;;10.80;;
3712;SDS011;1872;51.406;6.856;2023-07-20T09:27:41;11.77;;;10.67;;
3712;SDS011;1872;51.406;6.856;2023-07-20T09:30:08;10.77;;;9.77;;
3712;SDS011;1872;51.406;6.856;2023-07-20T09:32:39;7.40;;;6.77;;
3712;SDS011;1872;51.406;6.856;2023-07-20T09:37:42;7.47;;;6.70;;
3712;SDS011;1872;51.406;6.856;2023-07-20T09:40:23;7.73;;;6.93;;
3712;SDS011;1872;51.406;6.856;2023-07-20T09:42:51;7.13;;;6.63;;
3712;SDS011;1872;51.406;6.856;2023-07-20T09:45:17;7.40;;;6.80;;
3712;SDS011;1872;51.406;6.856;2023-07-20T09:47:43;8.60;;;8.00;;
3712;SDS011;1872;51.406;6.856;2023-07-20T09:50:09;9.70;;;8.37;;
3712;SDS011;1872;51.406;6.856;2023-07-20T09:52:38;7.07;;;6.57;;
3712;SDS011;1872;51.406;6.856;2023-07-20T09:55:07;6.50;;;5.90;;
3712;SDS011;1872;51.406;6.856;2023-07-20T09:57:34;7.43;;;6.93;;
3712;SDS011;1872;51.406;6.856;2023-07-20T10:00:01;6.27;;;5.77;;
3712;SDS011;1872;51.406;6.856;2023-07-20T10:02:40;5.10;;;4.70;;
3712;SDS011;1872;51.406;6.856;2023-07-20T10:05:08;5.87;;;5.30;;
3712;SDS011;1872;51.406;6.856;2023-07-20T10:07:36;4.77;;;4.43;;
3712;SDS011;1872;51.406;6.856;2023-07-20T10:10:08;5.17;;;4.67;;
3712;SDS011;1872;51.406;6.856;2023-07-20T10:12:36;5.03;;;4.63;;
3712;SDS011;1872;51.406;6.856;2023-07-20T10:17:45;3.30;;;3.10;;
3712;SDS011;1872;51.406;6.856;2023-07-20T10:20:22;4.33;;;3.40;;
3712;SDS011;1872;51.406;6.856;2023-07-20T10:22:49;4.90;;;2.93;;
3712;SDS011;1872;51.406;6.856;2023-07-20T10:25:18;4.90;;;4.50;;
3712;SDS011;1872;51.406;6.856;2023-07-20T10:27:47;3.77;;;3.37;;
3712;SDS011;1872;51.406;6.856;2023-07-20T10:30:13;3.67;;;3.47;;
3712;SDS011;1872;51.406;6.856;2023-07-20T10:32:40;4.00;;;3.80;;
3712;SDS011;1872;51.406;6.856;2023-07-20T10:35:16;4.37;;;3.97;;
3712;SDS011;1872;51.406;6.856;2023-07-20T10:37:53;4.23;;;3.93;;
3712;SDS011;1872;51.406;6.856;2023-07-20T10:40:38;3.67;;;3.40;;
3712;SDS011;1872;51.406;6.856;2023-07-20T10:43:05;4.57;;;4.17;;
3712;SDS011;1872;51.406;6.856;2023-07-20T10:45:35;3.57;;;3.27;;
3712;SDS011;1872;51.406;6.856;2023-07-20T10:48:06;3.97;;;3.67;;
3712;SDS011;1872;51.406;6.856;2023-07-20T10:50:40;3.43;;;3.13;;
3712;SDS011;1872;51.406;6.856;2023-07-20T10:53:10;4.00;;;3.70;;
3712;SDS011;1872;51.406;6.856;2023-07-20T10:55:37;4.87;;;4.00;;
3712;SDS011;1872;51.406;6.856;2023-07-20T10:58:10;4.60;;;4.20;;
3712;SDS011;1872;51.406;6.856;2023-07-20T11:00:37;4.60;;;4.05;;
3712;SDS011;1872;51.406;6.856;2023-07-20T11:03:32;4.77;;;4.20;;
3712;SDS011;1872;51.406;6.856;2023-07-20T11:05:59;4.22;;;3.83;;
3712;SDS011;1872;51.406;6.856;2023-07-20T11:08:45;3.33;;;3.13;;
3712;SDS011;1872;51.406;6.856;2023-07-20T11:11:30;3.27;;;3.07;;
3712;SDS011;1872;51.406;6.856;2023-07-20T11:13:59;3.97;;;3.13;;
3712;SDS011;1872;51.406;6.856;2023-07-20T11:16:36;3.30;;;3.03;;
3712;SDS011;1872;51.406;6.856;2023-07-20T11:19:05;4.10;;;3.80;;
3712;SDS011;1872;51.406;6.856;2023-07-20T11:21:38;4.57;;;4.27;;
3712;SDS011;1872;51.406;6.856;2023-07-20T11:24:07;4.03;;;3.73;;
3712;SDS011;1872;51.406;6.856;2023-07-20T11:26:41;4.50;;;4.10;;
3712;SDS011;1872;51.406;6.856;2023-07-20T11:29:08;4.50;;;4.20;;
3712;SDS011;1872;51.406;6.856;2023-07-20T11:31:37;4.43;;;4.13;;
3712;SDS011;1872;51.406;6.856;2023-07-20T11:34:04;4.20;;;3.90;;
3712;SDS011;1872;51.406;6.856;2023-07-20T11:36:30;4.17;;;3.77;;
3712;SDS011;1872;51.406;6.856;2023-07-20T11:38:56;4.90;;;4.60;;
3712;SDS011;1872;51.406;6.856;2023-07-20T11:41:24;4.00;;;3.80;;
3712;SDS011;1872;51.406;6.856;2023-07-20T11:43:51;4.50;;;3.93;;
3712;SDS011;1872;51.406;6.856;2023-07-20T11:46:23;5.90;;;3.90;;
3712;SDS011;1872;51.406;6.856;2023-07-20T11:48:54;5.13;;;3.93;;
3712;SDS011;1872;51.406;6.856;2023-07-20T11:51:21;3.17;;;2.97;;
3712;SDS011;1872;51.406;6.856;2023-07-20T11:53:47;2.97;;;2.67;;
3712;SDS011;1872;51.406;6.856;2023-07-20T11:56:13;3.13;;;2.93;;
3712;SDS011;1872;51.406;6.856;2023-07-20T11:58:45;2.90;;;2.70;;
3712;SDS011;1872;51.406;6.856;2023-07-20T12:01:12;2.50;;;2.30;;
3712;SDS011;1872;51.406;6.856;2023-07-20T12:03:39;2.40;;;2.30;;
3712;SDS011;1872;51.406;6.856;2023-07-20T12:06:13;3.30;;;3.00;;
3712;SDS011;1872;51.406;6.856;2023-07-20T12:08:43;2.77;;;2.57;;
3712;SDS011;1872;51.406;6.856;2023-07-20T12:11:10;2.80;;;2.60;;
3712;SDS011;1872;51.406;6.856;2023-07-20T12:13:41;3.03;;;2.83;;
3712;SDS011;1872;51.406;6.856;2023-07-20T12:16:18;3.00;;;2.80;;
3712;SDS011;1872;51.406;6.856;2023-07-20T12:18:45;2.80;;;2.70;;
3712;SDS011;1872;51.406;6.856;2023-07-20T12:21:11;3.03;;;2.70;;
3712;SDS011;1872;51.406;6.856;2023-07-20T12:23:40;3.77;;;2.70;;
3712;SDS011;1872;51.406;6.856;2023-07-20T12:26:07;2.77;;;2.57;;
3712;SDS011;1872;51.406;6.856;2023-07-20T12:28:40;2.80;;;2.60;;
3712;SDS011;1872;51.406;6.856;2023-07-20T12:31:06;2.50;;;2.30;;
3712;SDS011;1872;51.406;6.856;2023-07-20T12:33:33;2.20;;;2.10;;
3712;SDS011;1872;51.406;6.856;2023-07-20T12:35:59;2.87;;;2.60;;
3712;SDS011;1872;51.406;6.856;2023-07-20T12:38:26;2.90;;;2.70;;
3712;SDS011;1872;51.406;6.856;2023-07-20T12:40:53;1.80;;;1.40;;
3712;SDS011;1872;51.406;6.856;2023-07-20T12:43:20;2.57;;;2.47;;
3712;SDS011;1872;51.406;6.856;2023-07-20T12:45:46;2.65;;;1.60;;
3712;SDS011;1872;51.406;6.856;2023-07-20T12:48:12;3.20;;;3.00;;
3712;SDS011;1872;51.406;6.856;2023-07-20T12:50:38;2.57;;;2.40;;
3712;SDS011;1872;51.406;6.856;2023-07-20T12:53:03;3.40;;;2.30;;
3712;SDS011;1872;51.406;6.856;2023-07-20T12:55:29;2.07;;;1.97;;
3712;SDS011;1872;51.406;6.856;2023-07-20T12:57:55;2.73;;;2.50;;
3712;SDS011;1872;51.406;6.856;2023-07-20T13:00:21;2.27;;;2.17;;
3712;SDS011;1872;51.406;6.856;2023-07-20T13:02:50;2.40;;;2.20;;
3712;SDS011;1872;51.406;6.856;2023-07-20T13:05:16;3.07;;;2.77;;
3712;SDS011;1872;51.406;6.856;2023-07-20T13:07:42;2.40;;;2.20;;
3712;SDS011;1872;51.406;6.856;2023-07-20T13:10:08;1.90;;;1.80;;
3712;SDS011;1872;51.406;6.856;2023-07-20T13:12:35;2.70;;;2.17;;
3712;SDS011;1872;51.406;6.856;2023-07-20T13:15:02;1.90;;;1.80;;
3712;SDS011;1872;51.406;6.856;2023-07-20T13:17:31;2.43;;;2.23;;
3712;SDS011;1872;51.406;6.856;2023-07-20T13:19:58;1.90;;;1.80;;
3712;SDS011;1872;51.406;6.856;2023-07-20T13:22:23;2.00;;;1.90;;
3712;SDS011;1872;51.406;6.856;2023-07-20T13:24:49;1.93;;;1.83;;
3712;SDS011;1872;51.406;6.856;2023-07-20T13:27:18;2.00;;;1.90;;
3712;SDS011;1872;51.406;6.856;2023-07-20T13:29:45;2.10;;;2.00;;
3712;SDS011;1872;51.406;6.856;2023-07-20T13:32:14;3.50;;;2.90;;
3712;SDS011;1872;51.406;6.856;2023-07-20T13:34:40;2.47;;;2.27;;
3712;SDS011;1872;51.406;6.856;2023-07-20T13:37:06;2.60;;;2.40;;
3712;SDS011;1872;51.406;6.856;2023-07-20T13:39:32;2.13;;;2.03;;
3712;SDS011;1872;51.406;6.856;2023-07-20T13:41:57;2.37;;;2.17;;
3712;SDS011;1872;51.406;6.856;2023-07-20T13:44:23;2.00;;;1.90;;
3712;SDS011;1872;51.406;6.856;2023-07-20T13:46:49;2.40;;;2.20;;
3712;SDS011;1872;51.406;6.856;2023-07-20T13:49:16;2.10;;;2.00;;
3712;SDS011;1872;51.406;6.856;2023-07-20T13:51:43;2.30;;;2.20;;
3712;SDS011;1872;51.406;6.856;2023-07-20T13:54:09;2.10;;;2.00;;
3712;SDS011;1872;51.406;6.856;2023-07-20T13:56:38;2.70;;;2.00;;
3712;SDS011;1872;51.406;6.856;2023-07-20T13:59:04;2.23;;;2.13;;
3712;SDS011;1872;51.406;6.856;2023-07-20T14:01:29;2.00;;;1.90;;
3712;SDS011;1872;51.406;6.856;2023-07-20T14:03:58;2.40;;;1.80;;
3712;SDS011;1872;51.406;6.856;2023-07-20T14:06:23;2.30;;;2.10;;
3712;SDS011;1872;51.406;6.856;2023-07-20T14:08:49;2.27;;;2.17;;
3712;SDS011;1872;51.406;6.856;2023-07-20T14:11:15;1.90;;;1.80;;
3712;SDS011;1872;51.406;6.856;2023-07-20T14:13:41;1.67;;;1.50;;
3712;SDS011;1872;51.406;6.856;2023-07-20T14:16:07;5.10;;;3.07;;
3712;SDS011;1872;51.406;6.856;2023-07-20T14:21:55;2.00;;;1.90;;
3712;SDS011;1872;51.406;6.856;2023-07-20T14:27:14;2.10;;;2.00;;
3712;SDS011;1872;51.406;6.856;2023-07-20T14:29:40;3.57;;;2.70;;
3712;SDS011;1872;51.406;6.856;2023-07-20T14:32:06;1.83;;;1.73;;
3712;SDS011;1872;51.406;6.856;2023-07-20T14:34:32;2.33;;;2.23;;
3712;SDS011;1872;51.406;6.856;2023-07-20T14:36:59;2.17;;;2.07;;
3712;SDS011;1872;51.406;6.856;2023-07-20T14:39:25;2.33;;;2.13;;
3712;SDS011;1872;51.406;6.856;2023-07-20T14:41:52;1.83;;;1.73;;
3712;SDS011;1872;51.406;6.856;2023-07-20T14:44:18;2.33;;;2.17;;
3712;SDS011;1872;51.406;6.856;2023-07-20T14:46:46;1.80;;;1.70;;
3712;SDS011;1872;51.406;6.856;2023-07-20T14:49:12;2.30;;;2.10;;
3712;SDS011;1872;51.406;6.856;2023-07-20T14:51:38;2.60;;;2.40;;
3712;SDS011;1872;51.406;6.856;2023-07-20T14:54:08;4.00;;;3.20;;
3712;SDS011;1872;51.406;6.856;2023-07-20T14:56:37;2.37;;;2.17;;
3712;SDS011;1872;51.406;6.856;2023-07-20T14:59:03;2.40;;;2.20;;
3712;SDS011;1872;51.406;6.856;2023-07-20T15:01:33;2.87;;;2.60;;
3712;SDS011;1872;51.406;6.856;2023-07-20T15:03:59;2.37;;;2.17;;
3712;SDS011;1872;51.406;6.856;2023-07-20T15:06:26;3.50;;;2.30;;
3712;SDS011;1872;51.406;6.856;2023-07-20T15:08:53;2.17;;;2.07;;
3712;SDS011;1872;51.406;6.856;2023-07-20T15:11:18;2.40;;;2.30;;
3712;SDS011;1872;51.406;6.856;2023-07-20T15:13:44;2.37;;;2.27;;
3712;SDS011;1872;51.406;6.856;2023-07-20T15:16:10;2.83;;;2.63;;
3712;SDS011;1872;51.406;6.856;2023-07-20T15:18:36;2.20;;;2.10;;
3712;SDS011;1872;51.406;6.856;2023-07-20T15:21:01;2.70;;;2.50;;
3712;SDS011;1872;51.406;6.856;2023-07-20T15:23:27;2.30;;;2.20;;
3712;SDS011;1872;51.406;6.856;2023-07-20T15:25:53;2.50;;;2.30;;
3712;SDS011;1872;51.406;6.856;2023-07-20T15:28:19;2.20;;;2.10;;